Time;durP1;ratioP1;P1;durP2;ratioP2;P2;SDS_P1;SDS_P2;PMS_P1;PMS_P2;Temp;Humidity;BMP_temperature;BMP_pressure;BME280_temperature;BME280_humidity;BME280_pressure;Samples;Min_cycle;Max_cycle;Signal;HPM_P1;HPM_P2
2020/12/07 00:01:33;;;;;;;4.90;3.30;;;;;;;;;;4962727;28;20034;-79
2020/12/07 00:03:58;;;;;;;6.07;3.77;;;;;;;;;;4966848;28;20085;-78
2020/12/07 00:06:23;;;;;;;6.67;4.00;;;;;;;;;;4992090;28;20062;-78
2020/12/07 00:08:49;;;;;;;6.37;3.80;;;;;;;;;;4986488;28;20070;-79
2020/12/07 00:11:14;;;;;;;6.73;3.67;;;;;;;;;;4978736;28;20058;-78
2020/12/07 00:13:39;;;;;;;5.63;3.43;;;;;;;;;;4978793;28;20186;-78
2020/12/07 00:16:08;;;;;;;5.70;3.60;;;;;;;;;;4994830;28;20058;-85
2020/12/07 00:18:34;;;;;;;5.82;3.63;;;;;;;;;;4966883;28;20478;-78
2020/12/07 00:21:00;;;;;;;5.60;3.40;;;;;;;;;;4965859;28;20042;-79
2020/12/07 00:23:25;;;;;;;5.10;3.13;;;;;;;;;;4985654;28;20085;-79
2020/12/07 00:25:50;;;;;;;5.53;3.47;;;;;;;;;;4963446;28;20054;-79
2020/12/07 00:28:16;;;;;;;6.00;3.53;;;;;;;;;;4974034;28;20065;-79
2020/12/07 00:30:41;;;;;;;6.30;3.53;;;;;;;;;;4992703;28;20058;-79
2020/12/07 00:33:06;;;;;;;4.87;3.00;;;;;;;;;;4992503;28;20062;-78
2020/12/07 00:35:32;;;;;;;4.77;3.10;;;;;;;;;;4992850;28;20058;-79
2020/12/07 00:37:57;;;;;;;5.23;3.20;;;;;;;;;;4976808;28;20101;-79
2020/12/07 00:40:22;;;;;;;5.03;2.80;;;;;;;;;;4976442;28;20110;-79
2020/12/07 00:42:48;;;;;;;5.20;2.90;;;;;;;;;;4968865;28;20058;-79
2020/12/07 00:45:13;;;;;;;4.47;2.80;;;;;;;;;;4976321;28;20084;-79
2020/12/07 00:47:38;;;;;;;5.20;3.13;;;;;;;;;;4984683;28;20069;-78
2020/12/07 00:50:04;;;;;;;5.80;3.00;;;;;;;;;;4996800;28;20113;-79
2020/12/07 00:52:29;;;;;;;4.40;2.93;;;;;;;;;;4962749;28;20503;-78
2020/12/07 00:54:54;;;;;;;5.20;3.37;;;;;;;;;;4963220;28;20536;-78
2020/12/07 00:57:20;;;;;;;4.00;2.80;;;;;;;;;;4995445;28;20437;-85
2020/12/07 00:59:45;;;;;;;5.47;2.77;;;;;;;;;;4995548;28;20049;-79
2020/12/07 01:02:10;;;;;;;4.77;2.80;;;;;;;;;;4969622;28;20035;-78
2020/12/07 01:04:36;;;;;;;4.77;2.77;;;;;;;;;;4958176;28;20117;-79
2020/12/07 01:07:01;;;;;;;4.63;2.77;;;;;;;;;;4977624;28;20062;-78
2020/12/07 01:09:26;;;;;;;4.73;2.70;;;;;;;;;;4995278;28;20022;-78
2020/12/07 01:11:54;;;;;;;4.57;2.90;;;;;;;;;;4974622;28;20065;-78
2020/12/07 01:14:21;;;;;;;5.00;2.83;;;;;;;;;;4975642;28;20038;-79
2020/12/07 01:16:46;;;;;;;4.20;2.42;;;;;;;;;;4975507;28;20522;-78
2020/12/07 01:19:11;;;;;;;4.00;2.70;;;;;;;;;;4975518;28;20034;-78
2020/12/07 01:21:37;;;;;;;3.93;2.50;;;;;;;;;;4977290;28;20054;-79
2020/12/07 01:24:03;;;;;;;4.83;2.80;;;;;;;;;;4978334;28;20109;-79
2020/12/07 01:26:30;;;;;;;4.13;2.53;;;;;;;;;;4961658;28;20049;-79
2020/12/07 01:28:55;;;;;;;4.57;2.47;;;;;;;;;;4978704;28;20045;-79
2020/12/07 01:31:20;;;;;;;3.50;2.30;;;;;;;;;;4995018;28;20106;-79
2020/12/07 01:33:46;;;;;;;4.20;2.60;;;;;;;;;;4978413;28;20481;-79
2020/12/07 01:36:12;;;;;;;4.10;2.40;;;;;;;;;;4961465;28;20030;-78
2020/12/07 01:38:37;;;;;;;4.45;2.60;;;;;;;;;;4995410;28;20554;-79
2020/12/07 01:41:02;;;;;;;3.77;2.40;;;;;;;;;;4978520;28;20030;-79
2020/12/07 01:43:28;;;;;;;3.87;2.30;;;;;;;;;;4961792;28;20077;-78
2020/12/07 01:45:53;;;;;;;3.50;2.13;;;;;;;;;;4975130;28;20027;-79
2020/12/07 01:48:18;;;;;;;3.47;2.10;;;;;;;;;;4974929;28;20090;-78
2020/12/07 01:50:44;;;;;;;4.10;2.43;;;;;;;;;;4974995;28;20030;-79
2020/12/07 01:53:09;;;;;;;3.47;2.20;;;;;;;;;;4988881;28;20037;-86
2020/12/07 01:55:38;;;;;;;3.90;2.25;;;;;;;;;;4978197;28;20026;-79
2020/12/07 01:58:03;;;;;;;4.07;2.30;;;;;;;;;;4962198;28;20031;-79
2020/12/07 02:00:28;;;;;;;3.03;2.00;;;;;;;;;;4955551;29;20051;-78
2020/12/07 02:02:54;;;;;;;3.53;2.20;;;;;;;;;;4978746;28;20100;-78
2020/12/07 02:05:19;;;;;;;4.30;2.27;;;;;;;;;;4977753;28;20026;-78
2020/12/07 02:07:44;;;;;;;3.47;1.97;;;;;;;;;;4977795;28;20477;-78
2020/12/07 02:10:10;;;;;;;3.70;2.27;;;;;;;;;;4961632;28;20450;-78
2020/12/07 02:12:35;;;;;;;3.97;2.30;;;;;;;;;;4985383;28;20497;-78
2020/12/07 02:15:00;;;;;;;3.53;2.00;;;;;;;;;;4974202;28;20018;-79
2020/12/07 02:17:26;;;;;;;3.23;2.10;;;;;;;;;;4993955;28;20031;-79
2020/12/07 02:19:51;;;;;;;3.43;2.20;;;;;;;;;;4978062;28;20037;-79
2020/12/07 02:22:16;;;;;;;3.67;2.20;;;;;;;;;;4987977;28;20061;-79
2020/12/07 02:24:42;;;;;;;2.83;1.90;;;;;;;;;;4973880;28;20381;-78
2020/12/07 02:27:09;;;;;;;3.27;1.90;;;;;;;;;;4974532;28;20106;-78
2020/12/07 02:29:34;;;;;;;3.70;2.08;;;;;;;;;;4976500;28;20034;-78
2020/12/07 02:32:16;;;;;;;3.57;2.10;;;;;;;;;;4978106;28;20389;-78
2020/12/07 02:34:41;;;;;;;3.38;2.00;;;;;;;;;;4961810;28;20026;-80
2020/12/07 02:37:07;;;;;;;3.33;1.90;;;;;;;;;;4987634;28;20027;-79
2020/12/07 02:39:32;;;;;;;4.87;2.13;;;;;;;;;;4974842;28;20061;-79
2020/12/07 02:41:58;;;;;;;2.80;1.80;;;;;;;;;;4977548;28;20469;-78
2020/12/07 02:44:23;;;;;;;3.40;1.93;;;;;;;;;;4961073;28;20057;-78
2020/12/07 02:46:48;;;;;;;4.63;2.13;;;;;;;;;;4976946;28;20434;-79
2020/12/07 02:49:14;;;;;;;3.00;1.80;;;;;;;;;;4978001;28;20026;-79
2020/12/07 02:51:39;;;;;;;2.70;1.70;;;;;;;;;;4976116;28;20047;-79
2020/12/07 02:54:04;;;;;;;3.47;2.00;;;;;;;;;;4958610;28;20030;-79
2020/12/07 02:56:30;;;;;;;3.00;1.80;;;;;;;;;;4957914;28;20037;-78
2020/12/07 02:58:55;;;;;;;3.17;1.83;;;;;;;;;;4976402;28;20105;-79
2020/12/07 03:01:20;;;;;;;2.50;1.60;;;;;;;;;;4977088;28;20026;-78
2020/12/07 03:03:46;;;;;;;3.43;1.90;;;;;;;;;;4943716;28;20037;-86
2020/12/07 03:06:11;;;;;;;2.77;1.80;;;;;;;;;;4974629;28;20113;-79
2020/12/07 03:08:36;;;;;;;2.97;1.97;;;;;;;;;;4973155;28;20062;-78
2020/12/07 03:11:04;;;;;;;3.50;1.90;;;;;;;;;;4973572;28;20135;-79
2020/12/07 03:13:29;;;;;;;3.05;1.75;;;;;;;;;;4939682;28;20027;-79
2020/12/07 03:15:54;;;;;;;2.87;1.60;;;;;;;;;;4954940;29;20031;-79
2020/12/07 03:18:20;;;;;;;2.90;1.80;;;;;;;;;;4989900;28;20121;-80
2020/12/07 03:20:45;;;;;;;3.27;1.90;;;;;;;;;;4976237;28;20093;-78
2020/12/07 03:23:10;;;;;;;3.23;1.50;;;;;;;;;;4976562;28;20118;-78
2020/12/07 03:25:36;;;;;;;3.17;1.83;;;;;;;;;;4991133;28;20058;-79
2020/12/07 03:28:01;;;;;;;2.47;1.60;;;;;;;;;;4977441;28;20065;-78
2020/12/07 03:30:27;;;;;;;3.80;1.50;;;;;;;;;;4993606;28;20050;-80
2020/12/07 03:32:52;;;;;;;2.73;1.70;;;;;;;;;;4992204;28;20066;-79
2020/12/07 03:35:17;;;;;;;2.67;1.70;;;;;;;;;;4995290;28;20117;-78
2020/12/07 03:37:42;;;;;;;3.47;1.80;;;;;;;;;;4996345;28;20489;-79
2020/12/07 03:40:08;;;;;;;2.67;1.60;;;;;;;;;;4980773;28;20898;-79
2020/12/07 03:42:33;;;;;;;2.57;1.43;;;;;;;;;;4969684;28;20490;-79
2020/12/07 03:44:58;;;;;;;3.13;1.73;;;;;;;;;;4993778;28;20394;-86
2020/12/07 03:47:24;;;;;;;2.73;1.60;;;;;;;;;;4977074;28;20505;-78
2020/12/07 03:49:49;;;;;;;2.67;1.70;;;;;;;;;;4978696;28;20027;-79
2020/12/07 03:52:15;;;;;;;2.47;1.70;;;;;;;;;;4980344;28;20065;-78
2020/12/07 03:54:40;;;;;;;2.60;1.60;;;;;;;;;;4964492;28;20045;-78
2020/12/07 03:57:06;;;;;;;2.50;1.57;;;;;;;;;;4996914;28;20470;-79
2020/12/07 03:59:31;;;;;;;2.03;1.33;;;;;;;;;;4997119;28;20058;-79
2020/12/07 04:01:56;;;;;;;2.80;1.67;;;;;;;;;;4992702;28;20074;-79
2020/12/07 04:04:27;;;;;;;2.90;1.63;;;;;;;;;;4977827;28;20030;-79
2020/12/07 04:06:52;;;;;;;3.13;1.65;;;;;;;;;;4979760;28;20049;-79
2020/12/07 04:09:17;;;;;;;1.83;1.30;;;;;;;;;;4980570;28;20473;-79
2020/12/07 04:11:43;;;;;;;2.30;1.43;;;;;;;;;;4976643;28;20058;-79
2020/12/07 04:14:08;;;;;;;2.53;1.57;;;;;;;;;;4977094;28;20042;-79
2020/12/07 04:16:33;;;;;;;2.50;1.30;;;;;;;;;;4976987;28;20042;-78
2020/12/07 04:18:59;;;;;;;2.80;1.63;;;;;;;;;;4976684;28;20022;-79
2020/12/07 04:21:24;;;;;;;2.77;1.40;;;;;;;;;;4977027;28;20460;-79
2020/12/07 04:23:49;;;;;;;2.10;1.40;;;;;;;;;;4980024;28;20026;-78
2020/12/07 04:26:15;;;;;;;2.17;1.47;;;;;;;;;;4970010;28;20054;-79
2020/12/07 04:28:40;;;;;;;2.27;1.33;;;;;;;;;;4993066;28;20063;-79
2020/12/07 04:31:05;;;;;;;1.97;1.20;;;;;;;;;;4976283;28;20062;-79
2020/12/07 04:33:31;;;;;;;1.80;1.20;;;;;;;;;;5007874;28;20026;-78
2020/12/07 04:35:56;;;;;;;1.73;1.10;;;;;;;;;;4974183;28;20054;-79
2020/12/07 04:38:22;;;;;;;2.40;1.27;;;;;;;;;;5017730;22;20124;-78
2020/12/07 04:40:47;;;;;;;2.53;1.40;;;;;;;;;;4995056;28;20105;-83
2020/12/07 04:43:14;;;;;;;2.03;1.30;;;;;;;;;;4978562;28;20061;-78
2020/12/07 04:45:39;;;;;;;1.90;1.40;;;;;;;;;;4978857;28;20034;-78
2020/12/07 04:48:04;;;;;;;2.10;1.23;;;;;;;;;;4974968;28;20069;-78
2020/12/07 04:50:30;;;;;;;1.90;1.17;;;;;;;;;;4975375;28;20054;-79
2020/12/07 04:52:56;;;;;;;1.73;1.23;;;;;;;;;;4991664;28;20026;-78
2020/12/07 04:55:22;;;;;;;;;;;;;;;;;;4975974;28;20055;-78
2020/12/07 04:57:47;;;;;;;2.00;1.30;;;;;;;;;;4993554;28;19921;-79
2020/12/07 05:00:12;;;;;;;1.70;1.10;;;;;;;;;;4978328;28;20571;-78
2020/12/07 05:02:38;;;;;;;3.03;1.27;;;;;;;;;;4971492;28;20497;-79
2020/12/07 05:05:04;;;;;;;1.90;1.17;;;;;;;;;;4978083;28;20437;-79
2020/12/07 05:07:31;;;;;;;;;;;;;;;;;;4965294;28;20031;-78
2020/12/07 05:09:56;;;;;;;1.40;0.93;;;;;;;;;;4974966;28;20292;-78
2020/12/07 05:12:26;;;;;;;1.87;1.20;;;;;;;;;;4959051;28;20046;-77
2020/12/07 05:14:53;;;;;;;1.80;1.20;;;;;;;;;;4966000;28;20026;-79
2020/12/07 05:17:18;;;;;;;1.48;1.00;;;;;;;;;;4976883;28;20038;-78
2020/12/07 05:19:44;;;;;;;3.00;1.13;;;;;;;;;;4978180;28;20061;-78
2020/12/07 05:22:13;;;;;;;2.67;1.00;;;;;;;;;;4969129;28;20054;-78
2020/12/07 05:24:39;;;;;;;2.72;1.58;;;;;;;;;;4959981;28;20489;-78
2020/12/07 05:27:04;;;;;;;1.83;1.23;;;;;;;;;;4959668;28;20061;-78
2020/12/07 05:29:35;;;;;;;2.60;1.30;;;;;;;;;;4959699;28;20062;-78
2020/12/07 05:32:00;;;;;;;2.75;1.58;;;;;;;;;;4970592;28;20026;-79
2020/12/07 05:34:26;;;;;;;2.83;1.30;;;;;;;;;;4972824;28;20031;-78
2020/12/07 05:36:55;;;;;;;2.40;1.27;;;;;;;;;;4968404;28;20109;-80
2020/12/07 05:39:21;;;;;;;2.20;1.30;;;;;;;;;;4978050;28;20120;-78
2020/12/07 05:41:47;;;;;;;3.63;1.45;;;;;;;;;;4970132;28;20390;-80
2020/12/07 05:44:12;;;;;;;5.73;1.33;;;;;;;;;;4942057;28;20050;-79
2020/12/07 05:46:37;;;;;;;3.03;1.20;;;;;;;;;;4969574;28;20039;-78
2020/12/07 05:49:03;;;;;;;5.20;1.40;;;;;;;;;;4941830;28;20061;-81
2020/12/07 05:51:28;;;;;;;6.13;1.30;;;;;;;;;;4959126;28;20073;-81
2020/12/07 05:53:53;;;;;;;4.30;1.50;;;;;;;;;;4958510;28;20027;-80
2020/12/07 05:56:19;;;;;;;4.70;1.23;;;;;;;;;;4958134;28;20062;-80
2020/12/07 05:59:01;;;;;;;4.23;1.50;;;;;;;;;;4971488;28;20026;-80
2020/12/07 06:01:27;;;;;;;5.38;1.30;;;;;;;;;;4983507;28;20018;-80
2020/12/07 06:03:53;;;;;;;3.80;1.30;;;;;;;;;;4993295;28;20033;-78
2020/12/07 06:06:32;;;;;;;2.88;1.38;;;;;;;;;;4977413;28;20034;-80
2020/12/07 06:09:08;;;;;;;8.02;1.20;;;;;;;;;;4960699;28;20065;-79
2020/12/07 06:11:39;;;;;;;2.60;1.30;;;;;;;;;;4961323;28;20034;-81
2020/12/07 06:14:04;;;;;;;4.78;1.30;;;;;;;;;;4944241;28;20077;-82
2020/12/07 06:16:34;;;;;;;1.63;1.02;;;;;;;;;;4943684;28;20062;-82
2020/12/07 06:18:59;;;;;;;4.22;1.40;;;;;;;;;;4978513;28;20477;-83
2020/12/07 06:21:24;;;;;;;3.47;1.20;;;;;;;;;;4978253;28;20057;-80
2020/12/07 06:23:50;;;;;;;3.53;1.23;;;;;;;;;;4978625;28;20030;-84
2020/12/07 06:26:17;;;;;;;2.70;1.20;;;;;;;;;;4961753;28;20076;-83
2020/12/07 06:28:46;;;;;;;3.33;1.30;;;;;;;;;;4978214;28;20034;-83
2020/12/07 06:31:20;;;;;;;2.25;1.20;;;;;;;;;;4978938;28;20030;-83
2020/12/07 06:33:50;;;;;;;1.60;1.00;;;;;;;;;;4979137;28;20022;-82
2020/12/07 06:36:29;;;;;;;3.05;1.20;;;;;;;;;;4962033;28;20388;-82
2020/12/07 06:38:55;;;;;;;1.92;1.10;;;;;;;;;;4993890;28;20029;-82
2020/12/07 06:41:41;;;;;;;2.30;1.10;;;;;;;;;;4962289;28;20109;-81
2020/12/07 06:44:18;;;;;;;1.90;1.00;;;;;;;;;;4978709;28;20092;-82
2020/12/07 06:46:47;;;;;;;2.20;1.00;;;;;;;;;;4962237;28;20077;-82
2020/12/07 06:49:13;;;;;;;1.50;0.90;;;;;;;;;;4977958;28;20126;-82
2020/12/07 06:51:39;;;;;;;2.90;1.05;;;;;;;;;;4961733;28;20030;-82
2020/12/07 06:54:13;;;;;;;4.25;1.20;;;;;;;;;;4974482;28;20164;-82
2020/12/07 06:56:39;;;;;;;2.83;1.10;;;;;;;;;;4990845;28;20023;-83
2020/12/07 06:59:07;;;;;;;1.57;1.00;;;;;;;;;;4974906;28;20117;-81
2020/12/07 07:01:33;;;;;;;1.50;1.00;;;;;;;;;;4976065;28;20058;-87
2020/12/07 07:03:58;;;;;;;2.30;1.00;;;;;;;;;;4977296;28;20058;-88
2020/12/07 07:06:24;;;;;;;3.17;0.90;;;;;;;;;;4994417;28;20058;-82
2020/12/07 07:08:54;;;;;;;3.40;1.10;;;;;;;;;;4977997;28;20027;-81
2020/12/07 07:11:19;;;;;;;2.90;0.90;;;;;;;;;;4976936;28;20485;-81
2020/12/07 07:13:48;;;;;;;2.67;0.93;;;;;;;;;;4976838;28;20029;-80
2020/12/07 07:16:14;;;;;;;3.25;0.90;;;;;;;;;;4976795;28;20042;-80
2020/12/07 07:18:41;;;;;;;1.90;0.95;;;;;;;;;;4992987;28;20069;-79
2020/12/07 07:21:06;;;;;;;4.90;1.00;;;;;;;;;;4993392;28;20023;-80
2020/12/07 07:23:32;;;;;;;1.90;0.83;;;;;;;;;;4976815;28;20082;-80
2020/12/07 07:26:13;;;;;;;2.63;1.00;;;;;;;;;;4993061;28;20117;-79
2020/12/07 07:28:38;;;;;;;3.53;0.85;;;;;;;;;;4977050;28;20038;-79
2020/12/07 07:31:04;;;;;;;2.67;0.90;;;;;;;;;;4992902;28;20031;-79
2020/12/07 07:33:33;;;;;;;3.13;0.90;;;;;;;;;;4976881;28;20029;-79
2020/12/07 07:35:58;;;;;;;1.95;0.90;;;;;;;;;;4976501;28;20030;-79
2020/12/07 07:38:34;;;;;;;1.63;0.73;;;;;;;;;;4992425;28;20089;-81
2020/12/07 07:40:59;;;;;;;4.30;0.80;;;;;;;;;;4976711;28;20023;-79
2020/12/07 07:43:25;;;;;;;2.15;0.98;;;;;;;;;;4992430;28;20026;-79
2020/12/07 07:45:58;;;;;;;1.30;0.82;;;;;;;;;;4992718;28;20037;-78
2020/12/07 07:48:30;;;;;;;2.92;0.90;;;;;;;;;;4991701;28;20023;-79
2020/12/07 08:18:02;;;;;;;3.75;1.00;;;;;;;;;;4981173;28;20089;-78
2020/12/07 08:20:31;;;;;;;2.17;0.80;;;;;;;;;;4979247;28;20026;-78
2020/12/07 08:22:57;;;;;;;3.60;0.90;;;;;;;;;;4964039;28;20022;-79
2020/12/07 08:25:51;;;;;;;1.52;0.70;;;;;;;;;;4979178;28;20029;-80
2020/12/07 08:28:21;;;;;;;2.83;0.77;;;;;;;;;;4979301;28;20022;-81
2020/12/07 08:31:18;;;;;;;3.83;0.90;;;;;;;;;;4979173;28;20058;-81
2020/12/07 08:33:53;;;;;;;2.08;0.80;;;;;;;;;;4978678;28;20026;-80
2020/12/07 08:36:19;;;;;;;5.70;0.95;;;;;;;;;;4994915;28;20457;-80
2020/12/07 08:38:44;;;;;;;3.57;0.83;;;;;;;;;;4978677;28;20062;-80
2020/12/07 08:41:11;;;;;;;2.57;0.70;;;;;;;;;;4962723;28;20473;-81
2020/12/07 08:43:41;;;;;;;1.70;0.80;;;;;;;;;;4978643;28;20022;-80
2020/12/07 08:46:08;;;;;;;1.88;0.85;;;;;;;;;;4979044;28;20030;-81
2020/12/07 08:48:33;;;;;;;;;;;;;;;;;;4979168;28;20026;-79
2020/12/07 08:50:59;;;;;;;2.08;0.60;;;;;;;;;;4994852;28;19917;-82
2020/12/07 08:53:24;;;;;;;2.13;0.60;;;;;;;;;;4976557;28;20061;-81
2020/12/07 08:55:50;;;;;;;1.27;0.80;;;;;;;;;;4960066;28;20065;-80
2020/12/07 08:58:15;;;;;;;0.93;0.67;;;;;;;;;;4958972;28;20433;-80
2020/12/07 09:00:40;;;;;;;1.93;0.70;;;;;;;;;;4961171;28;20270;-81
2020/12/07 09:03:06;;;;;;;3.67;0.90;;;;;;;;;;4991714;28;20382;-80
2020/12/07 09:05:31;;;;;;;1.77;0.50;;;;;;;;;;5002357;28;20076;-80
2020/12/07 09:07:57;;;;;;;2.10;0.70;;;;;;;;;;4978007;28;20022;-80
2020/12/07 09:10:22;;;;;;;3.23;0.87;;;;;;;;;;4949186;28;20112;-79
2020/12/07 09:12:47;;;;;;;3.47;0.70;;;;;;;;;;4975896;28;20521;-80
2020/12/07 09:15:12;;;;;;;2.47;0.80;;;;;;;;;;4972324;28;20042;-81
2020/12/07 09:17:38;;;;;;;2.53;0.90;;;;;;;;;;4958540;28;20131;-81
2020/12/07 09:20:03;;;;;;;1.67;0.63;;;;;;;;;;4958553;28;20023;-81
2020/12/07 09:22:29;;;;;;;1.40;0.80;;;;;;;;;;4957723;28;20023;-81
2020/12/07 09:24:54;;;;;;;1.40;0.80;;;;;;;;;;4958285;28;20078;-81
2020/12/07 09:27:19;;;;;;;1.87;0.70;;;;;;;;;;4958984;28;20064;-80
2020/12/07 09:29:45;;;;;;;2.43;0.60;;;;;;;;;;4977632;28;20066;-81
2020/12/07 09:32:10;;;;;;;1.23;0.60;;;;;;;;;;4977588;28;20054;-81
2020/12/07 09:34:36;;;;;;;1.55;0.60;;;;;;;;;;4958968;28;20027;-81
2020/12/07 09:37:02;;;;;;;3.25;0.80;;;;;;;;;;4958338;28;20026;-80
2020/12/07 09:39:27;;;;;;;1.47;0.60;;;;;;;;;;4958016;28;20061;-79
2020/12/07 09:41:52;;;;;;;2.80;0.70;;;;;;;;;;4958083;28;20109;-80
2020/12/07 09:44:18;;;;;;;1.33;0.53;;;;;;;;;;4958073;28;20109;-79
2020/12/07 09:46:43;;;;;;;1.50;0.60;;;;;;;;;;4967460;28;20058;-80
2020/12/07 09:49:08;;;;;;;1.43;0.60;;;;;;;;;;4973984;28;20062;-80
2020/12/07 09:51:34;;;;;;;1.73;0.70;;;;;;;;;;4947110;28;20073;-80
2020/12/07 09:53:59;;;;;;;1.33;0.70;;;;;;;;;;4942121;28;20061;-81
2020/12/07 09:56:29;;;;;;;1.77;0.60;;;;;;;;;;4969451;28;20512;-80
2020/12/07 09:58:55;;;;;;;1.52;0.70;;;;;;;;;;4977147;28;20038;-81
2020/12/07 10:01:21;;;;;;;3.65;0.70;;;;;;;;;;4991255;28;20026;-80
2020/12/07 10:03:47;;;;;;;1.92;0.90;;;;;;;;;;4976810;28;20120;-80
2020/12/07 10:06:12;;;;;;;1.47;0.70;;;;;;;;;;4981121;28;20101;-81
2020/12/07 10:08:37;;;;;;;1.10;0.70;;;;;;;;;;4992423;28;20474;-81
2020/12/07 10:11:03;;;;;;;1.20;0.60;;;;;;;;;;4976700;28;20516;-81
2020/12/07 10:13:28;;;;;;;1.17;0.70;;;;;;;;;;4976789;28;20032;-80
2020/12/07 10:15:53;;;;;;;1.77;0.80;;;;;;;;;;4977132;28;20058;-80
2020/12/07 10:18:19;;;;;;;1.30;0.70;;;;;;;;;;4959540;28;20109;-80
2020/12/07 10:20:46;;;;;;;2.93;0.93;;;;;;;;;;4977268;28;20452;-80
2020/12/07 10:23:11;;;;;;;1.42;0.80;;;;;;;;;;4957972;28;20033;-81
2020/12/07 10:25:37;;;;;;;2.03;0.63;;;;;;;;;;4941372;28;20454;-81
2020/12/07 10:28:02;;;;;;;1.50;0.70;;;;;;;;;;4973399;28;20031;-86
2020/12/07 10:30:27;;;;;;;2.10;0.80;;;;;;;;;;4976618;28;20021;-81
2020/12/07 10:32:53;;;;;;;1.73;0.80;;;;;;;;;;4976828;28;20065;-80
2020/12/07 10:35:18;;;;;;;2.17;0.70;;;;;;;;;;4974276;28;20070;-80
2020/12/07 10:38:08;;;;;;;2.03;0.70;;;;;;;;;;4997858;23;20061;31
2020/12/07 10:40:34;;;;;;;1.38;0.70;;;;;;;;;;4971958;28;20549;-77
2020/12/07 10:42:59;;;;;;;1.10;0.70;;;;;;;;;;4983171;28;20118;-77
2020/12/07 10:45:24;;;;;;;2.27;0.80;;;;;;;;;;4973447;28;20070;-78
2020/12/07 10:47:52;;;;;;;1.33;0.70;;;;;;;;;;4974754;28;20042;-77
2020/12/07 10:50:18;;;;;;;0.88;0.68;;;;;;;;;;4974245;28;20023;-77
2020/12/07 10:52:43;;;;;;;0.97;0.60;;;;;;;;;;4958554;28;20098;-76
2020/12/07 10:55:09;;;;;;;0.90;0.67;;;;;;;;;;4942691;28;20309;-78
2020/12/07 10:57:34;;;;;;;1.43;0.70;;;;;;;;;;4973849;28;20175;-77
2020/12/07 10:59:59;;;;;;;1.50;0.80;;;;;;;;;;4973613;28;20066;-77
2020/12/07 11:02:26;;;;;;;1.07;0.67;;;;;;;;;;4973997;28;20065;-77
2020/12/07 11:04:52;;;;;;;1.40;0.60;;;;;;;;;;4958477;28;20031;-77
2020/12/07 11:07:18;;;;;;;1.10;0.60;;;;;;;;;;4963702;28;20069;-76
2020/12/07 11:09:43;;;;;;;;;;;;;;;;;;4969240;28;20102;-76
2020/12/07 11:12:14;;;;;;;3.00;0.60;;;;;;;;;;4960230;28;20388;-83
2020/12/07 11:14:40;;;;;;;1.35;0.80;;;;;;;;;;4963710;28;20115;-76
2020/12/07 11:17:06;;;;;;;2.40;0.60;;;;;;;;;;4939481;29;20090;-77
2020/12/07 11:19:31;;;;;;;2.97;0.70;;;;;;;;;;4923536;29;20082;-77
2020/12/07 11:21:56;;;;;;;2.50;0.67;;;;;;;;;;4939073;29;20039;-76
2020/12/07 11:24:22;;;;;;;1.70;0.70;;;;;;;;;;4956458;28;20462;-77
2020/12/07 11:26:47;;;;;;;1.17;0.57;;;;;;;;;;4973701;28;20130;-76
2020/12/07 11:29:12;;;;;;;3.40;0.80;;;;;;;;;;4973665;28;20058;-76
2020/12/07 11:31:38;;;;;;;1.53;0.70;;;;;;;;;;4974000;28;20073;-77
2020/12/07 11:34:03;;;;;;;1.20;0.50;;;;;;;;;;4957695;28;20085;-77
2020/12/07 11:36:29;;;;;;;0.93;0.60;;;;;;;;;;4973819;28;20058;-76
2020/12/07 11:44:21;;;;;;;1.05;0.60;;;;;;;;;;4960499;28;20106;-77
2020/12/07 11:46:54;;;;;;;1.20;0.63;;;;;;;;;;4974841;28;20116;-77
2020/12/07 11:49:20;;;;;;;1.15;0.60;;;;;;;;;;4963027;28;20039;-76
2020/12/07 11:51:45;;;;;;;2.57;0.83;;;;;;;;;;4960830;28;20105;-76
2020/12/07 11:54:10;;;;;;;1.50;0.50;;;;;;;;;;4976872;28;20031;-77
2020/12/07 11:56:36;;;;;;;1.40;0.53;;;;;;;;;;4961363;28;20045;-76
2020/12/07 11:59:02;;;;;;;1.80;0.60;;;;;;;;;;4961169;28;20033;-76
2020/12/07 12:01:30;;;;;;;0.90;0.70;;;;;;;;;;4960891;28;20034;-76
2020/12/07 12:03:55;;;;;;;0.95;0.63;;;;;;;;;;4944730;28;20766;-76
2020/12/07 12:06:29;;;;;;;1.63;0.60;;;;;;;;;;4960933;28;20056;-77
2020/12/07 12:08:54;;;;;;;1.08;0.63;;;;;;;;;;4977065;28;20106;-77
2020/12/07 12:11:20;;;;;;;1.30;0.70;;;;;;;;;;4976666;28;20105;-76
2020/12/07 12:13:45;;;;;;;1.85;0.70;;;;;;;;;;4944433;28;20035;-76
2020/12/07 12:16:13;;;;;;;1.43;0.60;;;;;;;;;;4944511;28;20125;-77
2020/12/07 12:18:38;;;;;;;0.80;0.60;;;;;;;;;;4945009;28;20026;-76
2020/12/07 12:21:03;;;;;;;1.20;0.70;;;;;;;;;;4976945;28;20075;-76
2020/12/07 12:23:29;;;;;;;1.37;0.70;;;;;;;;;;4960698;28;20023;-77
2020/12/07 12:25:54;;;;;;;1.63;0.50;;;;;;;;;;4976778;28;20029;-77
2020/12/07 12:28:19;;;;;;;0.83;0.43;;;;;;;;;;4960182;28;20058;-77
2020/12/07 12:30:45;;;;;;;1.40;0.50;;;;;;;;;;4976666;28;20023;-78
2020/12/07 12:33:10;;;;;;;1.23;0.60;;;;;;;;;;4976928;28;20030;-76
2020/12/07 12:35:35;;;;;;;1.37;0.73;;;;;;;;;;4976761;28;20186;-76
2020/12/07 12:38:01;;;;;;;1.30;0.60;;;;;;;;;;4976056;28;20026;-76
2020/12/07 12:40:26;;;;;;;1.80;0.50;;;;;;;;;;4976236;28;20086;-77
2020/12/07 12:42:52;;;;;;;0.67;0.53;;;;;;;;;;4971229;28;20077;-77
2020/12/07 12:45:17;;;;;;;1.23;0.70;;;;;;;;;;4929483;29;20126;-77
2020/12/07 12:47:42;;;;;;;2.73;0.50;;;;;;;;;;4940929;29;20035;-77
2020/12/07 12:50:08;;;;;;;2.37;0.90;;;;;;;;;;4941599;29;20054;-76
2020/12/07 12:52:33;;;;;;;2.37;0.63;;;;;;;;;;4948850;28;20066;-76
2020/12/07 12:54:58;;;;;;;2.37;0.70;;;;;;;;;;4940457;29;20127;-76
2020/12/07 12:57:26;;;;;;;1.93;0.70;;;;;;;;;;4967781;28;20070;-76
2020/12/07 12:59:51;;;;;;;2.28;0.75;;;;;;;;;;4975122;28;20038;-76
2020/12/07 13:02:16;;;;;;;1.40;0.60;;;;;;;;;;4989180;28;20055;-77
2020/12/07 13:04:41;;;;;;;1.47;0.60;;;;;;;;;;4961815;28;20031;-77
2020/12/07 13:07:07;;;;;;;1.20;0.50;;;;;;;;;;4941240;28;20038;-77
2020/12/07 13:09:32;;;;;;;1.50;0.57;;;;;;;;;;4956575;29;20035;-77
2020/12/07 13:11:57;;;;;;;1.50;0.53;;;;;;;;;;4964549;28;20484;-77
2020/12/07 13:14:23;;;;;;;1.40;0.60;;;;;;;;;;4966570;28;20509;-77
2020/12/07 13:17:03;;;;;;;1.67;0.60;;;;;;;;;;4925222;29;20394;-77
2020/12/07 13:19:29;;;;;;;2.20;0.60;;;;;;;;;;4956231;28;20090;-76
2020/12/07 13:22:13;;;;;;;1.58;0.80;;;;;;;;;;4940801;29;20050;-77
2020/12/07 13:24:45;;;;;;;1.73;0.70;;;;;;;;;;4950046;28;20031;-77
2020/12/07 13:29:45;;;;;;;3.90;0.80;;;;;;;;;;4941971;29;20035;-79
2020/12/07 13:32:10;;;;;;;1.33;0.60;;;;;;;;;;4956555;28;20049;-77
2020/12/07 13:34:36;;;;;;;0.90;0.63;;;;;;;;;;4972730;28;20560;-76
2020/12/07 13:37:01;;;;;;;1.10;0.60;;;;;;;;;;4969537;28;20507;-77
2020/12/07 13:39:26;;;;;;;3.27;0.60;;;;;;;;;;4967072;28;20451;-76
2020/12/07 13:41:52;;;;;;;2.10;0.70;;;;;;;;;;4957771;28;20055;-76
2020/12/07 13:44:17;;;;;;;4.07;0.60;;;;;;;;;;4990480;28;20023;-76
2020/12/07 13:46:43;;;;;;;1.73;0.60;;;;;;;;;;4990689;28;20045;-77
2020/12/07 13:49:08;;;;;;;1.03;0.60;;;;;;;;;;4961987;28;20105;-75
2020/12/07 13:51:33;;;;;;;2.07;0.57;;;;;;;;;;4954889;28;20023;-76
2020/12/07 13:53:59;;;;;;;1.80;0.60;;;;;;;;;;4963553;28;20121;-77
2020/12/07 13:56:25;;;;;;;1.65;0.60;;;;;;;;;;4957438;28;20399;-76
2020/12/07 13:58:50;;;;;;;1.87;0.60;;;;;;;;;;4938278;29;20035;-75
2020/12/07 14:01:16;;;;;;;2.33;0.60;;;;;;;;;;4955764;28;20433;-76
2020/12/07 14:04:04;;;;;;;0.90;0.50;;;;;;;;;;4940000;28;20039;-76
2020/12/07 14:06:29;;;;;;;0.95;0.50;;;;;;;;;;4970622;28;20038;-75
2020/12/07 14:08:55;;;;;;;1.53;0.63;;;;;;;;;;4967659;28;20059;-76
2020/12/07 14:11:21;;;;;;;1.00;0.50;;;;;;;;;;4938121;29;20027;-76
2020/12/07 14:13:46;;;;;;;1.40;0.60;;;;;;;;;;4938272;29;20082;-76
2020/12/07 14:16:18;;;;;;;4.60;0.60;;;;;;;;;;4954293;29;20035;-76
2020/12/07 14:18:58;;;;;;;0.75;0.50;;;;;;;;;;4954321;28;20023;-76
2020/12/07 14:21:40;;;;;;;1.67;0.60;;;;;;;;;;4961142;28;20030;-75
2020/12/07 14:24:18;;;;;;;2.00;0.60;;;;;;;;;;4954603;28;20038;-75
2020/12/07 14:27:03;;;;;;;1.35;0.50;;;;;;;;;;4939983;29;20046;-76
2020/12/07 14:40:16;;;;;;;1.65;0.70;;;;;;;;;;4959925;28;20085;-76
2020/12/07 14:42:41;;;;;;;1.70;0.60;;;;;;;;;;4940836;28;20022;-75
2020/12/07 14:45:09;;;;;;;2.00;0.67;;;;;;;;;;4961413;28;20079;-77
2020/12/07 14:47:37;;;;;;;3.38;0.68;;;;;;;;;;4938263;28;20026;-75
2020/12/07 14:50:10;;;;;;;1.23;0.50;;;;;;;;;;4961496;28;20414;-76
2020/12/07 14:52:35;;;;;;;1.55;0.60;;;;;;;;;;4961571;28;20042;-75
2020/12/07 14:55:09;;;;;;;3.10;0.63;;;;;;;;;;4969789;28;20487;-77
2020/12/07 14:57:48;;;;;;;2.05;0.77;;;;;;;;;;4965881;28;20388;-75
2020/12/07 15:05:26;;;;;;;4.60;0.60;;;;;;;;;;4988697;28;20019;-76
2020/12/07 15:08:18;;;;;;;5.55;0.77;;;;;;;;;;4974478;28;20045;-76
2020/12/07 15:16:11;;;;;;;1.73;0.82;;;;;;;;;;4986743;28;20041;-76
2020/12/07 15:18:36;;;;;;;1.73;0.70;;;;;;;;;;4988791;28;20030;-76
2020/12/07 15:21:04;;;;;;;3.70;0.90;;;;;;;;;;4956856;28;20056;-76
2020/12/07 15:23:30;;;;;;;2.17;0.70;;;;;;;;;;4976845;28;20031;-77
2020/12/07 15:25:55;;;;;;;3.97;0.80;;;;;;;;;;4992643;28;20437;-76
2020/12/07 15:28:20;;;;;;;4.20;0.90;;;;;;;;;;4976375;28;20462;-79
2020/12/07 15:30:46;;;;;;;5.07;1.10;;;;;;;;;;4960369;28;20194;-77
2020/12/07 15:33:11;;;;;;;5.03;1.20;;;;;;;;;;4977986;28;20085;-76
2020/12/07 15:35:36;;;;;;;2.90;1.20;;;;;;;;;;4992742;28;20061;-78
2020/12/07 15:38:02;;;;;;;6.20;1.43;;;;;;;;;;4992347;28;20019;-78